Time;durP1;ratioP1;P1;durP2;ratioP2;P2;SDS_P1;SDS_P2;PMS_P1;PMS_P2;Temp;Humidity;BMP_temperature;BMP_pressure;BME280_temperature;BME280_humidity;BME280_pressure;Samples;Min_cycle;Max_cycle;Signal;HPM_P1;HPM_P2
2023/12/28 00:01:06;;;;;;;4.93;4.53;;;6.00;99.90;;;;;;967547;143;27276;-84
2023/12/28 00:03:33;;;;;;;4.30;3.90;;;6.00;99.90;;;;;;964339;143;27436;-88
2023/12/28 00:06:00;;;;;;;5.43;4.77;;;6.00;99.90;;;;;;964866;144;27245;-87
2023/12/28 00:08:26;;;;;;;4.90;4.40;;;6.00;99.90;;;;;;962789;144;27339;-86
2023/12/28 00:10:53;;;;;;;5.83;5.23;;;5.90;99.90;;;;;;965116;144;27428;-83
2023/12/28 00:13:19;;;;;;;5.27;4.77;;;5.90;99.90;;;;;;966140;144;27349;-87
2023/12/28 00:15:46;;;;;;;6.90;5.77;;;5.90;99.90;;;;;;962848;144;27308;-86
2023/12/28 00:18:13;;;;;;;16.50;12.77;;;5.80;99.90;;;;;;963325;144;27271;-86
2023/12/28 00:20:39;;;;;;;12.23;9.03;;;5.80;99.90;;;;;;963114;144;27274;-85
2023/12/28 00:23:06;;;;;;;6.10;5.50;;;5.70;99.90;;;;;;963027;144;27424;-89
2023/12/28 00:25:32;;;;;;;6.80;4.70;;;5.70;99.90;;;;;;963242;144;28083;-88
2023/12/28 00:27:59;;;;;;;5.13;4.53;;;5.70;99.90;;;;;;963645;144;27270;-91
2023/12/28 00:30:26;;;;;;;5.70;4.60;;;5.60;99.90;;;;;;963629;147;27255;-88
2023/12/28 00:32:52;;;;;;;5.00;4.20;;;5.60;99.90;;;;;;963087;146;27387;-91
2023/12/28 00:35:19;;;;;;;4.30;3.87;;;5.60;99.90;;;;;;966068;144;27342;-90
2023/12/28 00:37:45;;;;;;;4.67;3.77;;;5.50;99.90;;;;;;964183;143;27330;-89
2023/12/28 00:40:12;;;;;;;4.03;3.33;;;5.50;99.90;;;;;;964101;144;27258;-89
2023/12/28 00:42:40;;;;;;;3.70;3.20;;;5.50;99.90;;;;;;964011;144;27347;-89
2023/12/28 00:45:05;;;;;;;4.40;3.60;;;5.50;99.90;;;;;;964148;147;27435;-89
2023/12/28 00:47:32;;;;;;;3.10;2.80;;;5.50;99.90;;;;;;963617;144;27328;-89
2023/12/28 00:49:58;;;;;;;3.80;3.23;;;5.50;99.90;;;;;;963565;144;27296;-89
2023/12/28 00:52:25;;;;;;;3.37;2.97;;;5.60;99.90;;;;;;965784;144;27254;-87
2023/12/28 00:54:51;;;;;;;3.73;3.33;;;5.60;99.90;;;;;;965459;144;27351;-89
2023/12/28 00:57:18;;;;;;;6.73;3.50;;;5.70;99.90;;;;;;962522;144;27335;-88
2023/12/28 00:59:45;;;;;;;3.33;3.03;;;5.70;99.90;;;;;;963027;147;27367;-87
2023/12/28 01:02:11;;;;;;;3.53;3.23;;;5.80;99.90;;;;;;965293;146;27359;-88
2023/12/28 01:04:38;;;;;;;3.80;3.40;;;5.90;99.90;;;;;;966095;144;27343;-85
2023/12/28 01:07:05;;;;;;;4.97;3.63;;;6.00;99.90;;;;;;965118;143;27321;-85
2023/12/28 01:09:32;;;;;;;4.60;3.47;;;6.10;99.90;;;;;;965515;147;27294;-88
2023/12/28 01:11:58;;;;;;;3.87;3.47;;;6.20;99.90;;;;;;964536;144;27296;-88
2023/12/28 01:14:24;;;;;;;5.30;3.43;;;6.30;99.90;;;;;;964502;144;27282;-86
2023/12/28 01:16:51;;;;;;;5.00;3.70;;;6.40;99.90;;;;;;966904;144;27321;-86
2023/12/28 01:19:17;;;;;;;3.67;3.00;;;6.50;99.90;;;;;;965342;144;27294;-86
2023/12/28 01:21:44;;;;;;;4.10;3.43;;;6.60;99.90;;;;;;965486;144;27279;-88
2023/12/28 01:24:10;;;;;;;4.63;3.60;;;6.70;99.90;;;;;;962885;143;27313;-86
2023/12/28 01:26:37;;;;;;;4.10;3.60;;;6.80;99.90;;;;;;966259;147;27312;-86
2023/12/28 01:29:04;;;;;;;3.77;2.70;;;6.90;99.90;;;;;;963723;144;27314;-87
2023/12/28 01:31:30;;;;;;;3.63;3.30;;;7.10;99.90;;;;;;965700;145;27330;-85
2023/12/28 01:33:57;;;;;;;3.07;2.60;;;7.20;99.90;;;;;;963778;144;27423;-84
2023/12/28 01:36:23;;;;;;;5.07;2.90;;;7.30;99.90;;;;;;960598;145;27331;-84
2023/12/28 01:38:50;;;;;;;3.27;2.47;;;7.50;99.90;;;;;;961092;145;27363;-85
2023/12/28 01:41:17;;;;;;;3.73;2.57;;;7.70;99.90;;;;;;959929;147;27287;-90
2023/12/28 01:43:43;;;;;;;2.83;2.50;;;7.90;99.90;;;;;;962541;145;27796;-85
2023/12/28 01:46:10;;;;;;;2.23;1.90;;;8.10;99.90;;;;;;962043;145;27296;-85
2023/12/28 01:48:36;;;;;;;2.53;2.20;;;8.30;99.90;;;;;;960676;145;27332;-86
2023/12/28 01:51:03;;;;;;;4.00;2.40;;;8.60;99.90;;;;;;961080;146;27647;-86
2023/12/28 01:53:29;;;;;;;2.73;2.43;;;8.80;99.90;;;;;;959927;145;27272;-85
2023/12/28 01:55:56;;;;;;;2.53;2.33;;;9.10;99.90;;;;;;959575;145;27275;-85
2023/12/28 01:58:23;;;;;;;2.23;2.13;;;9.30;99.90;;;;;;959998;145;27271;-84
2023/12/28 02:00:49;;;;;;;2.67;2.47;;;9.50;99.90;;;;;;961376;145;27751;-87
2023/12/28 02:03:16;;;;;;;2.73;2.17;;;9.80;99.90;;;;;;960329;145;27301;-88
2023/12/28 02:05:42;;;;;;;2.80;2.47;;;10.00;99.90;;;;;;962304;145;28103;-86
2023/12/28 02:08:10;;;;;;;3.83;2.45;;;10.20;99.90;;;;;;959714;145;27383;-86
2023/12/28 02:10:36;;;;;;;3.10;2.50;;;10.40;99.90;;;;;;958439;145;27358;-86
2023/12/28 02:13:02;;;;;;;2.40;2.10;;;10.60;99.90;;;;;;964655;145;27391;-86
2023/12/28 02:15:29;;;;;;;2.57;2.37;;;10.80;99.60;;;;;;962601;147;27400;-85
2023/12/28 02:18:01;;;;;;;2.00;1.80;;;10.90;98.80;;;;;;960198;145;27385;-85
2023/12/28 02:20:28;;;;;;;2.50;2.30;;;11.10;98.10;;;;;;960232;147;27358;-85
2023/12/28 02:22:55;;;;;;;2.40;2.20;;;11.30;97.60;;;;;;961580;145;27331;-85
2023/12/28 02:25:21;;;;;;;3.30;2.40;;;11.40;96.90;;;;;;959871;145;27271;-85
2023/12/28 02:27:48;;;;;;;3.15;2.12;;;11.50;96.40;;;;;;963475;147;27359;-86
2023/12/28 02:30:17;;;;;;;2.50;2.30;;;11.60;95.60;;;;;;962695;145;27283;-85
2023/12/28 02:33:20;;;;;;;2.23;2.00;;;11.70;95.10;;;;;;961466;144;27773;-86
2023/12/28 02:35:53;;;;;;;2.77;2.23;;;11.80;94.20;;;;;;960471;145;27463;-85
2023/12/28 02:38:19;;;;;;;3.15;2.25;;;12.00;93.90;;;;;;957867;146;27383;-85
2023/12/28 02:40:46;;;;;;;2.35;2.15;;;12.00;93.50;;;;;;958950;145;27249;-90
2023/12/28 02:43:12;;;;;;;2.67;2.43;;;12.10;93.30;;;;;;957910;145;27335;-83
2023/12/28 02:45:39;;;;;;;4.30;2.30;;;12.20;92.80;;;;;;956445;148;27411;-89
2023/12/28 02:48:06;;;;;;;2.47;2.27;;;12.30;92.60;;;;;;959595;145;27346;-89
2023/12/28 02:50:32;;;;;;;2.37;2.17;;;12.40;92.10;;;;;;957554;147;27303;-85
2023/12/28 02:52:59;;;;;;;2.65;2.40;;;12.50;91.80;;;;;;959668;145;27237;-83
2023/12/28 02:55:25;;;;;;;3.42;2.40;;;12.50;91.40;;;;;;957455;148;27439;-83
2023/12/28 02:57:54;;;;;;;3.87;2.33;;;12.60;91.20;;;;;;958040;145;27406;-83
2023/12/28 03:00:19;;;;;;;3.30;2.58;;;12.70;90.80;;;;;;959552;146;27316;-83
2023/12/28 03:02:45;;;;;;;4.25;2.37;;;12.70;90.20;;;;;;956867;145;27286;-83
2023/12/28 03:05:12;;;;;;;2.50;2.30;;;12.80;90.30;;;;;;959881;146;27399;-83
2023/12/28 03:07:40;;;;;;;2.47;2.27;;;12.80;89.90;;;;;;957541;146;27410;-83
2023/12/28 03:10:05;;;;;;;2.50;2.30;;;12.80;89.60;;;;;;959974;145;27305;-83
2023/12/28 03:12:32;;;;;;;2.98;2.20;;;12.90;88.70;;;;;;958760;145;27389;-83
2023/12/28 03:14:58;;;;;;;2.30;2.10;;;12.90;87.60;;;;;;958975;145;27333;-84
2023/12/28 03:17:25;;;;;;;2.50;2.30;;;12.90;87.10;;;;;;958502;144;27750;-82
2023/12/28 03:19:51;;;;;;;2.50;2.30;;;12.90;88.10;;;;;;955943;145;28356;-83
2023/12/28 03:22:18;;;;;;;2.25;2.15;;;12.90;86.90;;;;;;958216;145;27375;-83
2023/12/28 03:24:45;;;;;;;2.70;2.50;;;12.90;87.20;;;;;;958237;145;27327;-83
2023/12/28 03:27:11;;;;;;;2.42;2.05;;;12.90;87.30;;;;;;958434;144;27295;-84
2023/12/28 03:29:38;;;;;;;2.33;2.12;;;12.90;87.20;;;;;;959041;146;27446;-83
2023/12/28 03:32:04;;;;;;;3.30;2.40;;;12.90;87.90;;;;;;960710;145;27391;-84
2023/12/28 03:34:31;;;;;;;2.95;2.37;;;12.90;88.00;;;;;;962947;145;27354;-83
2023/12/28 03:36:57;;;;;;;2.50;2.30;;;12.90;88.70;;;;;;965975;144;27267;-84
2023/12/28 03:39:24;;;;;;;2.45;2.25;;;12.90;89.00;;;;;;966281;146;27899;-84
2023/12/28 03:41:52;;;;;;;7.58;3.47;;;12.90;89.30;;;;;;965828;144;27411;-84
2023/12/28 03:44:17;;;;;;;2.73;2.30;;;12.90;89.50;;;;;;965547;144;27326;-83
2023/12/28 03:46:44;;;;;;;3.40;2.52;;;12.80;89.00;;;;;;964504;143;27406;-82
2023/12/28 03:49:10;;;;;;;2.50;2.30;;;12.80;90.10;;;;;;965256;144;27296;-82
2023/12/28 03:51:37;;;;;;;2.20;2.10;;;12.80;90.10;;;;;;963569;144;27424;-82
2023/12/28 03:54:04;;;;;;;2.58;2.00;;;12.80;90.20;;;;;;965130;145;27364;-82
2023/12/28 03:56:32;;;;;;;2.37;2.10;;;12.70;90.40;;;;;;968303;144;27251;-82
2023/12/28 03:58:57;;;;;;;3.00;2.00;;;12.70;90.50;;;;;;965818;144;27299;-82
2023/12/28 04:01:23;;;;;;;2.10;1.90;;;12.70;90.70;;;;;;963949;144;27754;-85
2023/12/28 04:03:50;;;;;;;2.65;2.20;;;12.70;90.60;;;;;;964223;144;27296;-83
2023/12/28 04:06:17;;;;;;;2.20;2.00;;;12.70;90.90;;;;;;965557;144;27413;-86
2023/12/28 04:08:43;;;;;;;2.87;2.02;;;12.60;91.00;;;;;;962016;144;27323;-86
2023/12/28 04:11:10;;;;;;;4.40;2.20;;;12.60;91.10;;;;;;964302;144;27430;-87
2023/12/28 04:13:36;;;;;;;2.80;2.15;;;12.60;91.00;;;;;;963856;144;27350;-87
2023/12/28 04:16:03;;;;;;;3.40;2.33;;;12.60;91.40;;;;;;964223;144;27274;-87
2023/12/28 04:18:29;;;;;;;3.60;2.30;;;12.60;91.50;;;;;;963621;144;27295;-86
2023/12/28 04:20:56;;;;;;;5.83;2.13;;;12.60;91.40;;;;;;963328;146;27351;-85
2023/12/28 04:23:23;;;;;;;2.83;2.00;;;12.60;91.60;;;;;;964321;144;27341;-86
2023/12/28 04:25:49;;;;;;;4.60;2.20;;;12.50;91.60;;;;;;964436;145;27303;-86
2023/12/28 04:28:16;;;;;;;2.35;1.90;;;12.50;91.80;;;;;;965183;147;27279;-85
2023/12/28 04:30:42;;;;;;;2.43;2.23;;;12.50;91.90;;;;;;966387;144;27247;-85
2023/12/28 04:33:09;;;;;;;2.60;2.25;;;12.50;91.80;;;;;;964838;144;27323;-86
2023/12/28 04:35:36;;;;;;;2.30;2.10;;;12.50;91.90;;;;;;955537;143;27368;-84
2023/12/28 04:38:02;;;;;;;2.30;2.03;;;12.50;92.10;;;;;;947113;150;27208;-88
2023/12/28 04:40:29;;;;;;;5.30;2.43;;;12.50;92.20;;;;;;947295;150;27281;-88
2023/12/28 04:42:55;;;;;;;2.10;1.90;;;12.50;92.30;;;;;;946444;149;27380;-89
2023/12/28 04:45:22;;;;;;;2.10;2.00;;;12.50;92.40;;;;;;946054;148;27769;-89
2023/12/28 04:47:49;;;;;;;2.58;2.37;;;12.50;92.50;;;;;;946372;150;27323;-87
2023/12/28 04:50:15;;;;;;;3.85;2.50;;;12.50;92.40;;;;;;948170;147;27311;-91
2023/12/28 04:52:42;;;;;;;2.33;2.00;;;12.50;92.60;;;;;;949204;150;27311;-85
2023/12/28 04:55:08;;;;;;;3.62;2.05;;;12.50;92.90;;;;;;946974;150;27432;-85
2023/12/28 04:57:35;;;;;;;1.80;1.70;;;12.50;93.00;;;;;;948073;150;27333;-85
2023/12/28 05:00:03;;;;;;;2.30;2.10;;;12.50;93.20;;;;;;945240;150;27413;-84
2023/12/28 05:02:28;;;;;;;3.08;2.17;;;12.50;93.20;;;;;;947775;150;27330;-84
2023/12/28 05:04:55;;;;;;;3.67;2.00;;;12.50;93.10;;;;;;948113;150;27338;-85
2023/12/28 05:07:21;;;;;;;2.30;2.02;;;12.50;93.70;;;;;;947098;147;27376;-86
2023/12/28 05:09:48;;;;;;;2.60;2.30;;;12.50;93.70;;;;;;946915;150;28046;-85
2023/12/28 05:12:14;;;;;;;2.40;1.90;;;12.50;93.90;;;;;;948445;150;27263;-81
2023/12/28 05:14:41;;;;;;;2.22;2.02;;;12.50;94.00;;;;;;946015;147;27371;-84
2023/12/28 05:17:08;;;;;;;1.80;1.70;;;12.50;94.10;;;;;;947720;150;27347;-80
2023/12/28 05:19:34;;;;;;;2.40;2.20;;;12.50;94.20;;;;;;946357;150;27364;-79
2023/12/28 05:22:03;;;;;;;2.98;2.05;;;12.50;94.30;;;;;;947331;149;27370;-80
2023/12/28 05:24:30;;;;;;;1.90;1.80;;;12.50;94.40;;;;;;944197;149;27452;-86
2023/12/28 05:26:57;;;;;;;2.27;2.05;;;12.50;94.30;;;;;;948369;149;28173;-80
2023/12/28 05:29:23;;;;;;;2.07;1.87;;;12.50;94.50;;;;;;947419;150;27277;-84
2023/12/28 05:31:50;;;;;;;2.15;1.98;;;12.60;94.40;;;;;;949783;147;27247;-84
2023/12/28 05:34:16;;;;;;;1.85;1.70;;;12.60;94.40;;;;;;947768;149;27266;-85
2023/12/28 05:36:45;;;;;;;2.10;1.90;;;12.60;94.50;;;;;;945287;149;27374;-84
2023/12/28 05:39:11;;;;;;;3.30;2.10;;;12.60;94.60;;;;;;944795;150;27323;-83
2023/12/28 05:41:36;;;;;;;2.30;2.10;;;12.60;94.60;;;;;;946288;150;27394;-82
2023/12/28 05:44:03;;;;;;;2.52;1.95;;;12.60;94.70;;;;;;947649;147;27221;-82
2023/12/28 05:46:29;;;;;;;2.30;2.10;;;12.60;94.70;;;;;;946341;149;27410;-81
2023/12/28 05:48:56;;;;;;;2.25;2.00;;;12.60;94.80;;;;;;950489;150;27296;-81
2023/12/28 05:51:22;;;;;;;2.87;2.03;;;12.60;94.80;;;;;;947692;150;27272;-82
2023/12/28 05:53:49;;;;;;;3.00;2.23;;;12.60;94.80;;;;;;946805;150;27264;-82
2023/12/28 05:56:16;;;;;;;3.42;2.27;;;12.60;94.80;;;;;;947285;150;27456;-85
2023/12/28 05:58:42;;;;;;;2.37;2.17;;;12.60;94.90;;;;;;945635;150;27326;-81
2023/12/28 06:01:09;;;;;;;2.08;1.98;;;12.60;95.00;;;;;;947928;150;27209;-81
2023/12/28 06:03:35;;;;;;;2.25;2.08;;;12.60;95.00;;;;;;947081;147;27766;-81
2023/12/28 06:06:02;;;;;;;2.27;1.95;;;12.60;95.20;;;;;;947836;147;27364;-84
2023/12/28 06:08:29;;;;;;;1.95;1.85;;;12.60;95.20;;;;;;947328;149;27350;-81
2023/12/28 06:10:55;;;;;;;2.07;1.90;;;12.60;95.40;;;;;;948720;150;27361;-82
2023/12/28 06:13:22;;;;;;;1.95;1.77;;;12.60;95.40;;;;;;948090;150;27244;-83
2023/12/28 06:15:48;;;;;;;3.07;2.00;;;12.60;95.40;;;;;;947332;147;27289;-83
2023/12/28 06:18:15;;;;;;;1.70;1.60;;;12.60;95.60;;;;;;948048;150;27350;-84
2023/12/28 06:20:41;;;;;;;2.00;1.80;;;12.60;95.60;;;;;;947739;150;27332;-82
2023/12/28 06:23:08;;;;;;;2.47;1.90;;;12.60;95.60;;;;;;946654;149;27394;-82
2023/12/28 06:25:35;;;;;;;2.30;1.60;;;12.60;95.70;;;;;;945871;150;27321;-83
2023/12/28 06:28:01;;;;;;;2.08;1.95;;;12.60;95.70;;;;;;949483;150;27345;-84
2023/12/28 06:30:28;;;;;;;3.12;1.98;;;12.60;95.60;;;;;;948697;147;27415;-81
2023/12/28 06:32:54;;;;;;;1.95;1.65;;;12.60;95.80;;;;;;948837;147;27297;-81
2023/12/28 06:35:21;;;;;;;2.77;2.07;;;12.60;95.80;;;;;;944291;150;27798;-81
2023/12/28 06:37:48;;;;;;;1.90;1.70;;;12.60;95.70;;;;;;947770;147;27375;-82
2023/12/28 06:40:14;;;;;;;3.00;2.03;;;12.60;95.60;;;;;;946991;149;27410;-81
2023/12/28 06:42:43;;;;;;;2.07;1.87;;;12.60;95.60;;;;;;947831;150;27337;-80
2023/12/28 06:45:07;;;;;;;2.13;1.93;;;12.50;95.60;;;;;;946149;150;27306;-80
2023/12/28 06:47:34;;;;;;;2.00;1.60;;;12.50;95.70;;;;;;946803;150;27300;-81
2023/12/28 06:50:01;;;;;;;2.02;1.77;;;12.50;95.90;;;;;;946605;147;27416;-84
2023/12/28 06:52:27;;;;;;;1.70;1.60;;;12.50;96.10;;;;;;946422;149;27341;-80
2023/12/28 06:54:54;;;;;;;2.20;2.10;;;12.50;96.20;;;;;;944977;150;27357;-81
2023/12/28 06:57:20;;;;;;;2.10;1.90;;;12.50;96.40;;;;;;947789;150;27305;-80
2023/12/28 06:59:47;;;;;;;2.03;1.83;;;12.50;96.50;;;;;;948750;149;27371;-81
2023/12/28 07:02:13;;;;;;;2.08;1.70;;;12.50;96.50;;;;;;948962;150;27339;-80
2023/12/28 07:04:40;;;;;;;2.60;1.60;;;12.50;96.70;;;;;;947945;147;27319;-80
2023/12/28 07:07:07;;;;;;;1.57;1.47;;;12.50;96.70;;;;;;946182;150;27315;-81
2023/12/28 07:09:33;;;;;;;1.93;1.70;;;12.50;96.80;;;;;;948948;149;27669;-80
2023/12/28 07:12:00;;;;;;;1.95;1.80;;;12.50;96.80;;;;;;948184;150;27314;-83
2023/12/28 07:14:26;;;;;;;1.98;1.87;;;12.50;96.90;;;;;;948217;149;27335;-80
2023/12/28 07:16:53;;;;;;;1.90;1.80;;;12.50;97.30;;;;;;947491;150;27390;-83
2023/12/28 07:19:20;;;;;;;2.08;1.65;;;12.50;97.00;;;;;;948346;150;27232;-83
2023/12/28 07:21:46;;;;;;;1.92;1.70;;;12.50;97.10;;;;;;949305;150;27296;-82
2023/12/28 07:24:13;;;;;;;1.80;1.70;;;12.60;97.10;;;;;;944947;149;27330;-82
2023/12/28 07:26:39;;;;;;;1.62;1.52;;;12.60;97.20;;;;;;947864;150;27248;-82
2023/12/28 07:29:06;;;;;;;1.90;1.80;;;12.60;97.30;;;;;;946379;147;27264;-82
2023/12/28 07:31:33;;;;;;;1.90;1.80;;;12.60;97.30;;;;;;949104;150;27280;-82
2023/12/28 07:33:59;;;;;;;2.22;1.95;;;12.60;97.40;;;;;;946465;149;27359;-82
2023/12/28 07:36:26;;;;;;;2.10;1.67;;;12.60;97.50;;;;;;950488;146;27965;-81
2023/12/28 07:38:52;;;;;;;1.75;1.65;;;12.60;97.60;;;;;;961499;145;27302;-82
2023/12/28 07:41:19;;;;;;;1.70;1.60;;;12.60;97.70;;;;;;962187;145;27300;-82
2023/12/28 07:43:45;;;;;;;1.77;1.67;;;12.60;97.80;;;;;;961121;145;27280;-82
2023/12/28 07:46:12;;;;;;;1.70;1.60;;;12.60;97.80;;;;;;962801;145;27318;-82
2023/12/28 07:48:40;;;;;;;1.70;1.60;;;12.60;98.00;;;;;;959419;145;27263;-82
2023/12/28 07:51:05;;;;;;;1.60;1.45;;;12.70;98.10;;;;;;960015;145;27372;-82
2023/12/28 07:53:32;;;;;;;2.17;1.60;;;12.70;98.10;;;;;;960675;147;27282;-82
2023/12/28 07:55:58;;;;;;;1.95;1.70;;;12.70;98.20;;;;;;962757;146;27442;-80
2023/12/28 07:58:25;;;;;;;1.67;1.57;;;12.70;98.20;;;;;;960466;145;27760;-82
2023/12/28 08:00:52;;;;;;;1.30;1.20;;;12.70;98.30;;;;;;959485;145;27362;-81
2023/12/28 08:03:19;;;;;;;2.67;1.90;;;12.70;98.30;;;;;;960507;145;27263;-82
2023/12/28 08:05:45;;;;;;;1.60;1.50;;;12.70;98.30;;;;;;961131;145;27266;-82
2023/12/28 08:08:11;;;;;;;1.70;1.60;;;12.80;98.40;;;;;;958857;144;27386;-81
2023/12/28 08:10:38;;;;;;;1.52;1.42;;;12.80;98.40;;;;;;963034;145;27723;-81
2023/12/28 08:13:05;;;;;;;1.72;1.62;;;12.80;98.40;;;;;;960516;145;27307;-80
2023/12/28 08:15:31;;;;;;;1.87;1.65;;;12.80;98.50;;;;;;960501;146;27300;-82
2023/12/28 08:17:58;;;;;;;2.00;1.80;;;12.80;98.50;;;;;;961656;145;27314;-81
2023/12/28 08:20:24;;;;;;;1.70;1.60;;;12.90;98.50;;;;;;963642;147;28251;-81
2023/12/28 08:22:51;;;;;;;1.82;1.67;;;12.90;98.50;;;;;;959630;145;27322;-81
2023/12/28 08:25:18;;;;;;;1.72;1.60;;;12.90;98.40;;;;;;959870;144;27362;-80
2023/12/28 08:27:44;;;;;;;2.37;1.70;;;12.90;98.30;;;;;;959940;145;27324;-81
2023/12/28 08:30:11;;;;;;;4.03;1.77;;;12.90;98.30;;;;;;960404;145;27304;-81
2023/12/28 08:32:37;;;;;;;1.40;1.30;;;12.90;98.30;;;;;;961956;145;27399;-83
2023/12/28 08:35:04;;;;;;;1.67;1.57;;;12.90;98.30;;;;;;962099;145;27369;-81
2023/12/28 08:37:31;;;;;;;1.60;1.50;;;12.90;98.30;;;;;;963240;145;27409;-81
2023/12/28 08:39:57;;;;;;;2.83;1.65;;;12.90;98.30;;;;;;962003;147;27451;-81
2023/12/28 08:42:24;;;;;;;3.10;1.70;;;13.00;98.30;;;;;;961622;145;27885;-84
2023/12/28 08:44:50;;;;;;;1.75;1.65;;;13.00;98.30;;;;;;961605;145;27313;-84
2023/12/28 08:47:17;;;;;;;2.42;1.55;;;13.00;98.30;;;;;;961908;145;27271;-84
2023/12/28 08:49:43;;;;;;;2.80;1.50;;;13.00;98.30;;;;;;960963;145;27396;-89
2023/12/28 08:52:10;;;;;;;1.70;1.60;;;13.00;98.40;;;;;;962821;145;28285;-85
2023/12/28 08:54:37;;;;;;;1.50;1.40;;;13.10;98.30;;;;;;962628;145;27254;-85
2023/12/28 08:57:03;;;;;;;11.35;10.15;;;13.10;98.20;;;;;;961915;145;27299;-85
2023/12/28 08:59:30;;;;;;;4.42;3.60;;;13.10;98.00;;;;;;961119;145;27374;-85
2023/12/28 09:01:56;;;;;;;2.27;2.00;;;13.10;97.80;;;;;;960999;145;27349;-87
2023/12/28 09:04:23;;;;;;;1.80;1.70;;;13.10;97.70;;;;;;960372;147;27390;-87
2023/12/28 09:06:49;;;;;;;2.13;1.93;;;13.10;97.60;;;;;;962531;144;27403;-87
2023/12/28 09:09:16;;;;;;;2.00;1.73;;;13.10;97.60;;;;;;961621;144;27477;-86
2023/12/28 09:11:43;;;;;;;2.22;1.80;;;13.10;97.60;;;;;;959964;147;27346;-88
2023/12/28 09:14:09;;;;;;;2.30;2.10;;;13.10;97.60;;;;;;959952;145;27661;-86
2023/12/28 09:16:36;;;;;;;1.95;1.70;;;13.10;97.50;;;;;;961201;145;27403;-86
2023/12/28 09:19:02;;;;;;;1.90;1.80;;;13.10;97.50;;;;;;959330;143;27361;-86
2023/12/28 09:21:29;;;;;;;1.95;1.70;;;13.00;97.40;;;;;;960654;143;27425;-84
2023/12/28 09:23:56;;;;;;;2.02;1.70;;;13.00;97.40;;;;;;960023;143;27414;-85
2023/12/28 09:26:22;;;;;;;1.52;1.42;;;13.00;97.50;;;;;;961814;147;27292;-86
2023/12/28 09:28:49;;;;;;;2.83;1.95;;;13.00;97.50;;;;;;961523;145;27372;-87
2023/12/28 09:31:15;;;;;;;2.75;1.60;;;13.00;97.60;;;;;;962416;145;27355;-84
2023/12/28 09:33:42;;;;;;;2.62;1.67;;;13.00;97.70;;;;;;962050;143;27433;-87
2023/12/28 09:36:09;;;;;;;2.97;2.10;;;13.00;97.70;;;;;;959798;147;27862;-86
2023/12/28 09:38:35;;;;;;;1.70;1.60;;;13.10;97.90;;;;;;960978;144;27328;-86
2023/12/28 09:41:02;;;;;;;1.70;1.60;;;13.10;98.00;;;;;;967142;144;28329;-86
2023/12/28 09:43:37;;;;;;;1.57;1.47;;;13.10;97.90;;;;;;962776;144;27313;-84
2023/12/28 09:46:07;;;;;;;1.95;1.77;;;13.10;97.70;;;;;;964252;146;27340;-86
2023/12/28 09:48:33;;;;;;;1.80;1.52;;;13.20;97.70;;;;;;963679;144;27381;-86
2023/12/28 09:50:59;;;;;;;1.98;1.80;;;13.20;97.60;;;;;;963994;144;27562;-84
2023/12/28 09:53:26;;;;;;;2.20;1.70;;;13.20;97.50;;;;;;964010;145;27482;-83
2023/12/28 09:55:52;;;;;;;1.70;1.60;;;13.30;97.40;;;;;;962478;144;27292;-83
2023/12/28 09:58:19;;;;;;;1.57;1.47;;;13.30;97.20;;;;;;963543;144;27283;-83
2023/12/28 10:00:46;;;;;;;4.03;1.65;;;13.40;96.90;;;;;;966682;144;27345;-83
2023/12/28 10:03:15;;;;;;;3.05;1.40;;;13.40;96.90;;;;;;963866;144;27417;-83
2023/12/28 10:05:42;;;;;;;3.15;1.98;;;13.40;96.70;;;;;;962981;144;27439;-83
2023/12/28 10:08:08;;;;;;;2.02;1.65;;;13.50;96.60;;;;;;963594;144;27418;-82
2023/12/28 10:10:35;;;;;;;2.33;1.62;;;13.50;96.30;;;;;;965522;144;27264;-82
2023/12/28 10:13:02;;;;;;;1.65;1.55;;;13.60;96.30;;;;;;964692;143;27342;-82
2023/12/28 10:15:29;;;;;;;1.70;1.60;;;13.60;96.30;;;;;;963792;145;27424;-83
2023/12/28 10:17:55;;;;;;;2.70;1.60;;;13.60;96.10;;;;;;963402;147;27321;-83
2023/12/28 10:20:21;;;;;;;1.70;1.60;;;13.70;96.00;;;;;;963053;144;27244;-83
2023/12/28 10:22:48;;;;;;;1.72;1.62;;;13.70;95.80;;;;;;962877;144;27305;-82
2023/12/28 10:25:15;;;;;;;2.05;1.75;;;13.70;95.70;;;;;;963804;144;27412;-83
2023/12/28 10:27:44;;;;;;;1.82;1.50;;;13.80;95.50;;;;;;966491;144;27246;-82
2023/12/28 10:30:08;;;;;;;1.67;1.35;;;13.80;95.30;;;;;;964728;144;27371;-83
2023/12/28 10:32:34;;;;;;;1.52;1.42;;;13.80;95.20;;;;;;965922;144;27300;-83
2023/12/28 10:35:01;;;;;;;2.15;1.35;;;13.90;95.20;;;;;;964012;143;27655;-82
2023/12/28 10:37:28;;;;;;;1.60;1.50;;;13.90;95.30;;;;;;964398;145;28511;-82
2023/12/28 10:39:55;;;;;;;1.57;1.47;;;13.90;95.60;;;;;;952002;144;27312;-81
2023/12/28 10:42:30;;;;;;;1.98;1.70;;;14.00;96.20;;;;;;948415;149;27368;-82
2023/12/28 10:44:56;;;;;;;1.50;1.40;;;14.10;96.70;;;;;;946578;150;27343;-81
2023/12/28 10:47:23;;;;;;;3.00;1.77;;;14.30;96.70;;;;;;946066;150;27403;-81
2023/12/28 10:49:49;;;;;;;1.70;1.57;;;14.40;96.00;;;;;;947372;147;27374;-82
2023/12/28 10:52:16;;;;;;;2.15;1.45;;;14.50;95.50;;;;;;947480;147;27297;-83
2023/12/28 10:54:45;;;;;;;1.32;1.22;;;14.70;95.10;;;;;;946713;147;27446;-84
2023/12/28 10:57:14;;;;;;;1.70;1.60;;;14.80;94.10;;;;;;949484;150;27720;-81
2023/12/28 11:00:07;;;;;;;2.40;1.85;;;14.90;94.10;;;;;;946154;150;27290;-82
2023/12/28 11:02:32;;;;;;;1.85;1.70;;;14.90;93.80;;;;;;948133;149;27374;-84
2023/12/28 11:04:58;;;;;;;2.58;1.80;;;15.10;92.50;;;;;;947160;150;27328;-84
2023/12/28 11:07:25;;;;;;;2.35;1.57;;;15.10;91.90;;;;;;946360;149;27837;-84
2023/12/28 11:09:51;;;;;;;1.72;1.17;;;15.10;91.20;;;;;;944989;150;27318;-84
2023/12/28 11:12:18;;;;;;;1.72;1.60;;;15.10;91.00;;;;;;948747;149;27375;-84
2023/12/28 11:14:45;;;;;;;2.47;1.47;;;15.10;90.60;;;;;;946362;150;27294;-84
2023/12/28 11:17:11;;;;;;;3.98;1.47;;;15.10;90.40;;;;;;946600;149;27329;-84
2023/12/28 11:19:38;;;;;;;1.62;1.50;;;15.00;89.90;;;;;;946447;150;27237;-84
2023/12/28 11:22:05;;;;;;;2.02;1.57;;;15.00;90.00;;;;;;948538;150;27216;-84
2023/12/28 11:24:31;;;;;;;1.65;1.55;;;14.90;89.60;;;;;;945472;149;27419;-84
2023/12/28 11:26:58;;;;;;;2.05;1.40;;;14.80;89.50;;;;;;949512;149;27400;-83
2023/12/28 11:29:24;;;;;;;1.50;1.40;;;14.70;89.20;;;;;;946279;150;27339;-83
2023/12/28 11:31:56;;;;;;;1.90;1.60;;;14.60;89.70;;;;;;947977;149;27346;-83
2023/12/28 11:34:26;;;;;;;2.15;1.57;;;14.60;90.10;;;;;;946718;149;27364;-83
2023/12/28 11:36:53;;;;;;;1.50;1.35;;;14.50;90.50;;;;;;946475;150;27437;-84
2023/12/28 11:39:19;;;;;;;1.62;1.40;;;14.40;90.60;;;;;;952807;144;27334;-84
2023/12/28 11:41:45;;;;;;;2.65;1.50;;;14.50;90.70;;;;;;958866;147;27367;-84
2023/12/28 11:44:12;;;;;;;2.80;1.57;;;14.40;90.40;;;;;;960427;147;27268;-84
2023/12/28 11:46:39;;;;;;;1.82;1.50;;;14.40;90.50;;;;;;963227;147;27347;-83
2023/12/28 11:49:05;;;;;;;1.72;1.57;;;14.40;90.40;;;;;;962252;146;27786;-84
2023/12/28 11:51:35;;;;;;;1.77;1.37;;;14.40;90.30;;;;;;961653;146;27260;-83
2023/12/28 11:54:03;;;;;;;1.50;1.40;;;14.30;90.40;;;;;;962181;145;27291;-83
2023/12/28 11:56:28;;;;;;;2.10;1.77;;;14.30;90.60;;;;;;961763;145;27395;-83
2023/12/28 11:58:54;;;;;;;2.25;1.80;;;14.30;90.70;;;;;;961489;146;27359;-83
2023/12/28 12:01:21;;;;;;;1.20;1.17;;;14.30;90.70;;;;;;960701;145;27278;-83
2023/12/28 12:03:48;;;;;;;2.95;1.57;;;14.30;90.50;;;;;;961512;147;27377;-83
2023/12/28 12:06:14;;;;;;;1.70;1.60;;;14.30;90.60;;;;;;960418;144;27312;-84
2023/12/28 12:08:41;;;;;;;2.70;2.05;;;14.30;90.40;;;;;;960584;145;27484;-83
2023/12/28 12:11:07;;;;;;;1.60;1.50;;;14.30;90.20;;;;;;962683;146;27359;-83
2023/12/28 12:13:34;;;;;;;1.85;1.70;;;14.30;90.10;;;;;;959765;147;27336;-89
2023/12/28 12:16:05;;;;;;;3.30;1.70;;;14.30;89.90;;;;;;959922;145;27229;-88
2023/12/28 12:18:27;;;;;;;1.70;1.60;;;14.30;90.00;;;;;;959904;147;27326;-88
2023/12/28 12:20:54;;;;;;;1.67;1.52;;;14.30;89.90;;;;;;962435;145;27398;-91
2023/12/28 12:23:20;;;;;;;1.80;1.45;;;14.40;90.00;;;;;;959754;145;27295;-90
2023/12/28 12:25:47;;;;;;;1.50;1.40;;;14.40;90.10;;;;;;959209;145;27333;-86
2023/12/28 12:28:15;;;;;;;2.58;1.55;;;14.40;90.30;;;;;;961685;145;27332;-84
2023/12/28 12:30:40;;;;;;;1.32;1.22;;;14.50;90.50;;;;;;961475;145;27317;-90
2023/12/28 12:33:09;;;;;;;2.50;1.70;;;14.60;91.00;;;;;;961103;145;27293;-91
2023/12/28 12:35:34;;;;;;;3.72;1.65;;;14.70;90.90;;;;;;959807;145;27406;-90
2023/12/28 12:38:00;;;;;;;2.70;1.75;;;14.90;90.40;;;;;;961148;145;27407;-85
2023/12/28 12:40:26;;;;;;;2.00;1.90;;;15.00;90.10;;;;;;960855;144;27468;-90
2023/12/28 12:42:53;;;;;;;1.75;1.52;;;15.00;89.20;;;;;;964445;146;27258;-89
2023/12/28 12:45:20;;;;;;;1.87;1.32;;;15.00;88.20;;;;;;965371;144;27339;-88